Laukaa, Finland
Kieli:  Suomi
6°C CurCond
Päivitetty24/09/2017 06:05 
 

Lähistön Lentoasemien Säätiloja:

 

EFJY - Jyvaskyla (mil/C,) Finland
Etäisyys Sääasemalta: PKo 21km
Päivitetty: 24/09/2017 05:50
Sumua, Pilvistä
Sumua, Pilvistä
 Tuulen suunta PLu
Tuuli: PLu 4 km/h
Lämpötila: 4°C
Kastepiste: 4°C
Ilmankosteus: 100%
Ilmanpaine: 1035 hPa
Yhteenveto: Sumua
Pilvisyys: Pilvistä
Näkyvyys: 0 km
Pilvisyystiedot: Pilvistä 61 m
2017/09/24 02:50 EFJY 240250Z AUTO 33002KT 0200 R12/0600D FG VV002 04/04 Q1035
EFHA - Halli (fin-Afb), Finland
Etäisyys Sääasemalta: Lo 56km
Päivitetty: 24/09/2017 05:50
Pilvistä
Pilvistä
 Tuulen suunta IKa
Tuuli: IKa 7 km/h
Lämpötila: 8°C
Tuulen purevuus: 7°C
Kastepiste: 8°C
Ilmankosteus: 100%
Ilmanpaine: 1034 hPa
Pilvisyys: Pilvistä
Näkyvyys: 10 km
Pilvisyystiedot: Pilvistä 91 m
2017/09/24 02:50 EFHA 240250Z AUTO 11004KT 9999 VV003 08/08 Q1034
EFMI - Mikkeli, Finland
Etäisyys Sääasemalta: IKa 105km
Päivitetty: 24/09/2017 05:50
Patches of mist, Enimmäkseen pilvistä
Patches of mist, Enimmäkseen pilvistä
 Tuulen suunta Tyyntä
Tuuli: Tyyntä
Yhteenveto: Patches of Mist
Pilvisyys: Enimmäkseen pilvistä
Näkyvyys: 2 km
Pilvisyystiedot: Enimmäkseen pilvistä 30 m
2017/09/24 02:50 EFMI 240250Z AUTO 00000KT 2000 BCBR BKN001 ///// Q////
 
EFTP - Tampere/Pirkkala, Finland
Etäisyys Sääasemalta: Lo 135km
Päivitetty: 24/09/2017 05:50
Selkeätä
Selkeätä
 Tuulen suunta varies
Tuuli: varies 6 km/h
Lämpötila: 9°C
Kastepiste: 8°C
Ilmankosteus: 94%
Ilmanpaine: 1033 hPa
Yhteenveto: Selkeätä
Näkyvyys: Enemmän Kuin 10 km
2017/09/24 02:50 EFTP 240250Z AUTO VRB03KT CAVOK 09/08 Q1033
EFKU - Kuopio (mil/Civ), Finland
Etäisyys Sääasemalta: Ko 146km
Päivitetty: 24/09/2017 05:50
Sumua, Selkeätä
Sumua, Selkeätä
 Tuulen suunta Ka
Tuuli: Ka 6 km/h
Lämpötila: 7°C
Kastepiste: 7°C
Ilmankosteus: 100%
Ilmanpaine: 1036 hPa
Yhteenveto: Sumua
Pilvisyys: Selkeätä
Näkyvyys: 0 km
2017/09/24 02:50 EFKU 240250Z AUTO 14003KT 0400 R15/0900D FG NCD 07/07 Q1036
EFSI - Seinajoki-Ilmajo, Finland
Etäisyys Sääasemalta: LLu 149km
Päivitetty: 24/09/2017 05:50
Sumua, Joitain Pilviä
Sumua, Joitain Pilviä
 Tuulen suunta IKa
Tuuli: IKa 6 km/h
Lämpötila: 6°C
Kastepiste: 6°C
Ilmankosteus: 100%
Ilmanpaine: 1034 hPa
Yhteenveto: Sumua
Pilvisyys: Joitain Pilviä
Näkyvyys: 0 km
Pilvisyystiedot: Joitain Pilviä 30 m
2017/09/24 02:50 EFSI 240250Z AUTO 12003KT 0250 FG FEW001 06/06 Q1034